Time;durP1;ratioP1;P1;durP2;ratioP2;P2;SDS_P1;SDS_P2;PMS_P1;PMS_P2;Temp;Humidity;BMP_temperature;BMP_pressure;BME280_temperature;BME280_humidity;BME280_pressure;Samples;Min_cycle;Max_cycle;Signal;HPM_P1;HPM_P2
2021/12/05 00:22:11;;;;;;;4.13;3.60;;;1.80;99.90;;;;;;5049998;27;20601;-44
2021/12/05 00:24:43;;;;;;;4.70;3.67;;;1.80;99.90;;;;;;5072066;28;20213;-44
2021/12/05 00:27:16;;;;;;;3.70;3.30;;;1.80;99.90;;;;;;5059905;28;20378;-44
2021/12/05 00:29:51;;;;;;;5.10;3.87;;;1.80;99.90;;;;;;5047346;28;20605;-44
2021/12/05 00:32:24;;;;;;;5.30;3.90;;;1.80;99.90;;;;;;5055018;28;20600;-45
2021/12/05 00:35:28;;;;;;;4.53;3.63;;;1.90;99.90;;;;;;5070404;28;20295;-45
2021/12/05 00:38:46;;;;;;;6.50;3.23;;;1.90;99.90;;;;;;5058770;28;20285;-45
2021/12/05 00:41:39;;;;;;;4.40;3.23;;;1.80;99.90;;;;;;5047898;28;20320;-44
2021/12/05 00:44:43;;;;;;;3.33;2.87;;;1.90;99.90;;;;;;5058167;28;20232;-44
2021/12/05 00:47:27;;;;;;;4.23;3.37;;;1.80;99.90;;;;;;5076561;28;20206;-44
2021/12/05 00:50:13;;;;;;;4.60;3.23;;;1.80;99.90;;;;;;5086625;28;20701;-44
2021/12/05 00:53:14;;;;;;;4.80;3.63;;;1.90;99.90;;;;;;5054200;28;20249;-44
2021/12/05 00:55:50;;;;;;;4.33;3.23;;;1.90;99.90;;;;;;5073687;28;20220;-44
2021/12/05 01:09:35;;;;;;;3.40;2.93;;;1.90;99.90;;;;;;4990542;28;20198;-39
2021/12/05 01:15:00;;;;;;;3.03;2.73;;;1.90;99.90;;;;;;5045758;28;20448;-40
2021/12/05 01:17:34;;;;;;;3.83;3.30;;;2.00;99.90;;;;;;5073867;28;20197;-40
2021/12/05 01:20:03;;;;;;;3.80;3.20;;;1.90;99.90;;;;;;5062552;28;20233;-40
2021/12/05 01:22:33;;;;;;;7.23;3.17;;;1.80;99.90;;;;;;5058948;28;20219;-39
2021/12/05 01:25:11;;;;;;;3.63;3.03;;;1.90;99.90;;;;;;5066196;28;20283;-39
2021/12/05 01:27:43;;;;;;;4.20;3.30;;;1.80;99.90;;;;;;5055857;28;20219;-39
2021/12/05 01:30:17;;;;;;;3.37;2.87;;;1.80;99.90;;;;;;5064023;28;20572;-40
2021/12/05 01:33:01;;;;;;;4.13;3.30;;;1.70;99.90;;;;;;5049683;28;20354;-39
2021/12/05 01:35:43;;;;;;;4.13;3.40;;;1.80;99.90;;;;;;5045150;28;20295;-40
2021/12/05 01:38:16;;;;;;;3.97;3.43;;;1.90;99.90;;;;;;5048187;28;20885;-39
2021/12/05 01:52:42;;;;;;;3.97;3.37;;;1.90;99.90;;;;;;5045796;28;20209;-39
2021/12/05 01:55:42;;;;;;;3.57;3.07;;;2.00;99.90;;;;;;5048112;28;20208;-39
2021/12/05 01:58:25;;;;;;;4.47;3.33;;;2.10;99.90;;;;;;5048199;28;20249;-39
2021/12/05 02:15:22;;;;;;;4.97;3.97;;;2.00;99.90;;;;;;5037963;28;20662;-39
2021/12/05 02:29:45;;;;;;;6.77;4.27;;;1.90;99.90;;;;;;4976166;28;20207;-46
2021/12/05 02:35:14;;;;;;;6.67;4.30;;;1.80;99.90;;;;;;5060018;28;20927;-46
2021/12/05 02:38:08;;;;;;;6.70;4.67;;;1.90;99.90;;;;;;5050069;28;20205;-45
2021/12/05 02:40:46;;;;;;;5.73;4.30;;;1.90;99.90;;;;;;5071481;28;20226;-45
2021/12/05 02:43:19;;;;;;;7.47;4.90;;;1.80;99.90;;;;;;5062691;28;20229;-46
2021/12/05 02:45:47;;;;;;;7.00;4.97;;;1.90;99.90;;;;;;5043159;28;20499;-45
2021/12/05 02:48:15;;;;;;;6.77;4.90;;;1.90;99.90;;;;;;5066706;28;20304;-45
2021/12/05 02:50:43;;;;;;;6.43;4.83;;;1.90;99.90;;;;;;5065018;28;20262;-46
2021/12/05 02:53:18;;;;;;;6.70;4.37;;;1.90;99.90;;;;;;5043948;28;20237;-45
2021/12/05 02:55:45;;;;;;;6.80;4.93;;;1.80;99.90;;;;;;5064211;28;20666;-45
2021/12/05 02:58:20;;;;;;;7.33;5.00;;;1.90;99.90;;;;;;5032679;28;20749;-44
2021/12/05 03:01:04;;;;;;;8.77;5.13;;;1.90;99.90;;;;;;5052659;28;20738;-45
2021/12/05 03:03:32;;;;;;;8.20;5.57;;;1.80;99.90;;;;;;5061619;28;20618;-40
2021/12/05 03:06:07;;;;;;;7.80;5.13;;;1.80;99.90;;;;;;5067154;28;20205;-39
2021/12/05 03:08:35;;;;;;;7.83;5.47;;;1.90;99.90;;;;;;5057346;28;20669;-40
2021/12/05 03:11:03;;;;;;;6.80;4.53;;;1.90;99.90;;;;;;5046819;28;20692;-40
2021/12/05 03:13:30;;;;;;;7.83;5.00;;;1.80;99.90;;;;;;5060951;28;20229;-40
2021/12/05 03:15:58;;;;;;;6.50;4.93;;;1.80;99.90;;;;;;5056460;28;20215;-40
2021/12/05 03:18:25;;;;;;;7.07;5.10;;;1.80;99.90;;;;;;5057801;28;20233;-40
2021/12/05 03:20:52;;;;;;;6.40;4.50;;;1.80;99.90;;;;;;5066303;28;20590;-40
2021/12/05 03:23:19;;;;;;;8.70;4.70;;;1.90;99.90;;;;;;5052466;28;20787;-39
2021/12/05 03:25:47;;;;;;;10.20;5.17;;;1.90;99.90;;;;;;5052826;28;20205;-39
2021/12/05 03:28:14;;;;;;;8.50;5.80;;;1.90;99.90;;;;;;5046960;28;20212;-40
2021/12/05 03:30:41;;;;;;;6.87;5.00;;;1.90;99.90;;;;;;5059946;28;20205;-39
2021/12/05 03:33:08;;;;;;;7.10;4.90;;;1.90;99.90;;;;;;5040271;28;20230;-40
2021/12/05 03:35:35;;;;;;;7.83;5.17;;;1.80;99.90;;;;;;5034022;28;20210;-40
2021/12/05 03:38:02;;;;;;;7.73;5.30;;;1.90;99.90;;;;;;5055340;28;20681;-39
2021/12/05 03:40:32;;;;;;;7.33;5.20;;;1.70;99.90;;;;;;5060443;28;20703;-40
2021/12/05 03:43:03;;;;;;;7.77;5.10;;;1.80;99.90;;;;;;5049397;28;20278;-40
2021/12/05 03:45:36;;;;;;;6.77;4.47;;;1.90;99.90;;;;;;5049801;28;20210;-39
2021/12/05 03:48:04;;;;;;;8.30;5.50;;;2.00;99.90;;;;;;5033609;28;20581;-39
2021/12/05 03:50:31;;;;;;;8.10;5.60;;;2.00;99.90;;;;;;5055949;28;20567;-40
2021/12/05 03:52:58;;;;;;;7.37;5.30;;;1.90;99.90;;;;;;5045253;28;20225;-40
2021/12/05 03:55:25;;;;;;;8.03;5.97;;;2.00;99.90;;;;;;5057633;28;20208;-39
2021/12/05 03:57:52;;;;;;;7.87;5.30;;;1.90;99.90;;;;;;5040009;28;22240;-39
2021/12/05 04:00:26;;;;;;;8.80;5.83;;;1.90;99.90;;;;;;5051063;28;20210;-40
2021/12/05 04:02:55;;;;;;;8.23;5.50;;;1.80;99.90;;;;;;5043452;28;20233;-39
2021/12/05 04:05:23;;;;;;;9.03;5.93;;;1.90;99.90;;;;;;5062415;28;20598;-39
2021/12/05 04:07:50;;;;;;;8.50;5.90;;;1.90;99.90;;;;;;5047027;28;20236;-40
2021/12/05 04:10:17;;;;;;;7.43;5.50;;;1.90;99.90;;;;;;5058051;28;20629;-39
2021/12/05 04:12:44;;;;;;;8.37;6.37;;;1.80;99.90;;;;;;5059997;28;20319;-39
2021/12/05 04:15:12;;;;;;;8.67;5.97;;;1.80;99.90;;;;;;5050102;28;20212;-39
2021/12/05 04:17:42;;;;;;;9.47;6.37;;;1.90;99.90;;;;;;5038229;28;20419;-39
2021/12/05 04:20:12;;;;;;;7.50;5.93;;;2.00;99.90;;;;;;5060444;28;20233;-40
2021/12/05 04:22:39;;;;;;;11.80;5.60;;;2.00;99.90;;;;;;5060095;28;20239;-40
2021/12/05 04:25:10;;;;;;;6.93;5.53;;;2.00;99.90;;;;;;5054508;28;20214;-39
2021/12/05 04:27:37;;;;;;;10.43;5.47;;;2.00;99.90;;;;;;5060322;28;20463;-39
2021/12/05 04:30:06;;;;;;;7.47;5.20;;;2.00;99.90;;;;;;5050926;28;20209;-40
2021/12/05 04:32:33;;;;;;;7.83;5.70;;;1.90;99.90;;;;;;5051063;28;20202;-40
2021/12/05 04:35:01;;;;;;;7.83;5.80;;;1.90;99.90;;;;;;5054762;28;20210;-39
2021/12/05 04:37:28;;;;;;;8.27;5.60;;;1.90;99.90;;;;;;5059730;28;20209;-40
2021/12/05 04:39:55;;;;;;;11.07;5.93;;;1.80;99.90;;;;;;5037199;28;20216;-40
2021/12/05 04:42:22;;;;;;;7.77;5.37;;;1.80;99.90;;;;;;5059215;28;20228;-40
2021/12/05 04:44:49;;;;;;;8.20;5.50;;;1.80;99.90;;;;;;5048711;28;20833;-40
2021/12/05 04:47:16;;;;;;;8.90;6.00;;;1.80;99.90;;;;;;5061587;28;20877;-40
2021/12/05 04:49:43;;;;;;;9.70;6.10;;;1.80;99.90;;;;;;5044031;28;20567;-40
2021/12/05 04:52:12;;;;;;;11.90;6.30;;;1.80;99.90;;;;;;5043453;28;20201;-41
2021/12/05 04:54:40;;;;;;;8.53;5.83;;;1.80;99.90;;;;;;5061332;28;20440;-40
2021/12/05 04:57:07;;;;;;;12.30;6.03;;;1.90;99.90;;;;;;5049898;28;20202;-40
2021/12/05 04:59:36;;;;;;;10.57;6.40;;;1.80;99.90;;;;;;5047200;28;20516;-40
2021/12/05 05:02:07;;;;;;;9.07;6.07;;;1.80;99.90;;;;;;5048734;28;20225;-40
2021/12/05 05:04:41;;;;;;;12.20;6.50;;;1.80;99.90;;;;;;5030306;28;20630;-40
2021/12/05 05:07:16;;;;;;;10.60;6.50;;;1.80;99.90;;;;;;5057545;28;20205;-41
2021/12/05 05:09:43;;;;;;;11.17;6.77;;;1.80;99.90;;;;;;5063090;28;20847;-40
2021/12/05 05:12:11;;;;;;;15.33;7.37;;;1.80;99.90;;;;;;5052038;28;20203;-41
2021/12/05 05:14:38;;;;;;;12.27;7.53;;;1.90;99.90;;;;;;5043388;28;20221;-41
2021/12/05 05:17:06;;;;;;;15.30;7.67;;;1.80;99.90;;;;;;5062893;28;20218;-40
2021/12/05 05:19:37;;;;;;;11.10;6.90;;;1.80;99.90;;;;;;5047905;28;20708;-40
2021/12/05 05:22:09;;;;;;;13.10;7.60;;;1.80;99.90;;;;;;5061535;28;20223;-40
2021/12/05 05:44:14;;;;;;;13.10;7.87;;;1.90;99.90;;;;;;5024696;28;20227;-40
2021/12/05 05:46:54;;;;;;;14.80;7.93;;;1.90;99.90;;;;;;5048049;28;20427;-41
2021/12/05 05:49:24;;;;;;;18.47;8.57;;;1.80;99.90;;;;;;5063051;28;20197;-40
2021/12/05 05:51:51;;;;;;;10.97;7.60;;;1.80;99.90;;;;;;5045422;28;20209;-41
2021/12/05 05:54:19;;;;;;;11.80;7.77;;;1.80;99.90;;;;;;5056417;28;20250;-40
2021/12/05 05:56:52;;;;;;;11.43;8.00;;;1.80;99.90;;;;;;5063130;28;20281;-40
2021/12/05 05:59:26;;;;;;;10.43;7.17;;;1.80;99.90;;;;;;5044745;28;21023;-41
2021/12/05 06:03:20;;;;;;;11.30;8.20;;;1.90;99.90;;;;;;5052493;28;20585;-41
2021/12/05 06:04:51;;;;;;;12.90;7.20;;;1.80;99.90;;;;;;5072993;28;20871;-41
2021/12/05 06:07:18;;;;;;;16.30;8.07;;;1.90;99.90;;;;;;5048042;28;20219;-40
2021/12/05 06:09:45;;;;;;;10.67;7.50;;;1.90;99.90;;;;;;5062740;28;20208;-41
2021/12/05 06:12:13;;;;;;;12.17;7.47;;;1.80;99.90;;;;;;5058103;28;20200;-39
2021/12/05 06:14:40;;;;;;;12.30;7.63;;;1.80;99.90;;;;;;5060760;28;20221;-39
2021/12/05 06:17:07;;;;;;;14.03;9.10;;;1.90;99.90;;;;;;5050901;28;20206;-40
2021/12/05 06:19:33;;;;;;;15.30;8.40;;;1.90;99.90;;;;;;5055030;28;20209;-40
2021/12/05 06:22:00;;;;;;;15.03;8.63;;;1.90;99.90;;;;;;5048637;28;20226;-40
2021/12/05 06:24:27;;;;;;;15.07;8.93;;;1.90;99.90;;;;;;5059169;28;20739;-40
2021/12/05 06:26:54;;;;;;;15.07;8.80;;;2.00;99.90;;;;;;5051749;28;20210;-39
2021/12/05 06:29:23;;;;;;;12.93;9.30;;;1.90;99.90;;;;;;5053019;28;20205;-40
2021/12/05 06:32:16;;;;;;;15.20;8.67;;;2.00;99.90;;;;;;5055049;28;20565;-40
2021/12/05 06:37:32;;;;;;;15.03;8.53;;;2.00;99.90;;;;;;5063266;28;20208;-41
2021/12/05 06:40:19;;;;;;;16.03;9.50;;;2.00;99.90;;;;;;5055795;28;20205;-40
2021/12/05 06:42:52;;;;;;;17.73;9.17;;;2.00;99.90;;;;;;5062947;28;20339;-39
2021/12/05 06:48:06;;;;;;;13.17;8.97;;;2.00;99.90;;;;;;5054926;28;20217;-39
2021/12/05 06:50:33;;;;;;;15.93;9.77;;;2.00;99.90;;;;;;5054679;28;20206;-40
2021/12/05 06:53:00;;;;;;;13.97;9.80;;;2.10;99.90;;;;;;5066353;28;20427;-40
2021/12/05 06:55:27;;;;;;;14.93;10.00;;;2.00;99.90;;;;;;5045514;28;20727;-40
2021/12/05 06:57:53;;;;;;;14.40;8.87;;;2.00;99.90;;;;;;5066088;28;20488;-40
2021/12/05 07:00:26;;;;;;;15.70;9.63;;;2.10;99.90;;;;;;5053551;28;20220;-40
2021/12/05 07:02:52;;;;;;;14.27;9.60;;;2.00;99.90;;;;;;5026373;28;20225;-40
2021/12/05 07:05:38;;;;;;;17.87;10.93;;;2.10;99.90;;;;;;5028310;28;20421;-45
2021/12/05 07:08:06;;;;;;;18.10;10.23;;;2.10;99.90;;;;;;5051192;28;20214;-45
2021/12/05 07:10:39;;;;;;;15.07;10.40;;;2.10;99.90;;;;;;5033102;28;20586;-46
2021/12/05 07:15:58;;;;;;;16.50;11.27;;;2.00;99.90;;;;;;5044419;28;20216;-46
2021/12/05 07:21:07;;;;;;;15.47;10.97;;;2.00;99.90;;;;;;5044737;28;20218;-45
2021/12/05 07:23:46;;;;;;;19.03;10.93;;;2.10;99.90;;;;;;5047264;28;20873;-45
2021/12/05 07:26:18;;;;;;;16.60;9.63;;;2.10;99.90;;;;;;5030264;28;20210;-45
2021/12/05 07:42:30;;;;;;;36.40;24.93;;;2.20;99.90;;;;;;5033984;28;20637;-41
2021/12/05 07:45:01;;;;;;;33.93;22.20;;;2.10;99.90;;;;;;5044667;28;20289;-41
2021/12/05 07:47:31;;;;;;;19.50;12.67;;;2.20;99.90;;;;;;5046972;28;20725;-41
2021/12/05 07:50:03;;;;;;;18.93;12.17;;;2.10;99.90;;;;;;5053581;28;20258;-41
2021/12/05 07:52:31;;;;;;;18.83;14.10;;;2.10;99.90;;;;;;5048986;28;20412;-41
2021/12/05 07:55:07;;;;;;;23.57;15.33;;;2.10;99.90;;;;;;5037776;28;20219;-41
2021/12/05 07:57:44;;;;;;;18.50;13.93;;;2.10;99.90;;;;;;5041184;28;20408;-40
2021/12/05 08:00:20;;;;;;;18.53;12.20;;;2.10;99.90;;;;;;5056087;28;20201;-41
2021/12/05 08:16:31;;;;;;;12.93;7.37;;;2.10;99.90;;;;;;5040245;28;20654;-45
2021/12/05 08:18:59;;;;;;;8.37;7.13;;;2.20;99.90;;;;;;5014307;28;20298;-45
2021/12/05 08:21:27;;;;;;;7.87;5.83;;;2.10;99.90;;;;;;5049922;28;20335;-45
2021/12/05 08:23:54;;;;;;;10.73;6.50;;;2.20;99.90;;;;;;5022296;28;20243;-46
2021/12/05 08:26:26;;;;;;;9.40;5.83;;;2.20;99.90;;;;;;5028889;28;20212;-45
2021/12/05 08:29:03;;;;;;;10.03;6.23;;;2.20;99.90;;;;;;5034519;28;20214;-46
2021/12/05 08:31:39;;;;;;;8.77;6.20;;;2.20;99.90;;;;;;5040415;28;20293;-46
2021/12/05 08:34:25;;;;;;;9.93;5.70;;;2.30;99.90;;;;;;5035878;28;20638;-46
2021/12/05 08:37:23;;;;;;;7.20;5.37;;;2.30;99.90;;;;;;5042566;28;20708;-45
2021/12/05 09:24:37;;;;;;;9.57;6.87;;;2.60;99.90;;;;;;5046995;28;20227;-45
2021/12/05 09:27:40;;;;;;;14.07;7.43;;;2.60;99.90;;;;;;5049292;28;20700;-45
2021/12/05 09:38:53;;;;;;;14.30;8.30;;;2.70;99.90;;;;;;5035614;28;20235;-44
2021/12/05 10:06:47;;;;;;;15.77;10.03;;;2.70;99.90;;;;;;5038379;28;20345;-41
2021/12/05 10:09:29;;;;;;;12.10;8.83;;;2.70;99.90;;;;;;5041196;28;20215;-41
2021/12/05 10:12:12;;;;;;;11.63;8.00;;;2.70;99.90;;;;;;5040238;28;20394;-41
2021/12/05 10:14:50;;;;;;;13.67;7.93;;;2.80;99.90;;;;;;5036430;28;20322;-41
2021/12/05 10:20:41;;;;;;;16.27;7.70;;;2.80;99.90;;;;;;5033907;28;20781;-41
2021/12/05 10:26:35;;;;;;;11.37;7.83;;;2.70;99.90;;;;;;5039479;28;20336;-41
2021/12/05 10:35:03;;;;;;;11.50;7.13;;;2.80;99.90;;;;;;5041156;28;20249;-41
2021/12/05 10:37:31;;;;;;;18.70;8.30;;;2.60;99.90;;;;;;5047019;28;20233;-41
2021/12/05 10:40:04;;;;;;;13.83;8.53;;;2.70;99.90;;;;;;5041424;28;20221;-41
2021/12/05 10:42:44;;;;;;;10.83;7.57;;;2.70;99.90;;;;;;5048555;28;20227;-41
2021/12/05 10:45:29;;;;;;;10.70;7.33;;;2.70;99.90;;;;;;5031162;28;21944;-41
2021/12/05 10:47:59;;;;;;;11.53;7.43;;;2.70;99.90;;;;;;5026113;28;20217;-41
2021/12/05 10:50:36;;;;;;;13.53;7.83;;;2.70;99.90;;;;;;5061515;28;20206;-41
2021/12/05 10:53:41;;;;;;;11.10;7.80;;;2.80;99.90;;;;;;5034653;28;20809;-41
2021/12/05 10:56:18;;;;;;;14.77;8.53;;;2.80;99.90;;;;;;5033987;28;20421;-41
2021/12/05 10:58:50;;;;;;;18.20;10.53;;;2.90;99.90;;;;;;5058124;28;20663;-41
2021/12/05 11:01:27;;;;;;;15.97;9.70;;;2.80;99.90;;;;;;5034316;28;23344;-41
2021/12/05 11:03:59;;;;;;;28.57;13.97;;;2.80;99.90;;;;;;5038339;28;20778;-41
2021/12/05 11:06:36;;;;;;;17.20;9.70;;;2.80;99.90;;;;;;5045057;28;20226;-41
2021/12/05 11:09:08;;;;;;;8.70;6.13;;;2.90;99.90;;;;;;5009620;28;20219;-41
2021/12/05 11:11:37;;;;;;;9.83;6.30;;;2.90;99.90;;;;;;5038084;28;20706;-41
2021/12/05 11:14:09;;;;;;;10.40;6.23;;;2.90;99.90;;;;;;5041674;28;20314;-41
2021/12/05 11:16:40;;;;;;;11.27;7.83;;;2.90;99.90;;;;;;5057355;28;20222;-40
2021/12/05 11:19:18;;;;;;;15.87;8.87;;;2.90;99.90;;;;;;5019857;28;20213;-41
2021/12/05 11:21:48;;;;;;;11.83;8.67;;;2.90;99.90;;;;;;5026334;28;20213;-41
2021/12/05 11:24:18;;;;;;;12.27;7.77;;;2.90;99.90;;;;;;5047779;28;20227;-41
2021/12/05 11:27:19;;;;;;;13.90;6.87;;;2.90;99.90;;;;;;5025800;28;20211;-41
2021/12/05 11:29:54;;;;;;;10.77;6.40;;;2.90;99.90;;;;;;5023080;28;20269;-41
2021/12/05 11:32:27;;;;;;;10.07;6.60;;;3.00;99.90;;;;;;5038920;28;20211;-41
2021/12/05 11:34:56;;;;;;;11.20;6.90;;;3.00;99.90;;;;;;5025256;28;20216;-41
2021/12/05 11:37:23;;;;;;;10.20;7.00;;;3.00;99.90;;;;;;5031352;28;20212;-41
2021/12/05 11:39:50;;;;;;;10.90;7.33;;;3.00;99.90;;;;;;5043887;28;20214;-41
2021/12/05 11:42:20;;;;;;;10.90;7.57;;;2.90;99.90;;;;;;5018870;28;20218;-41
2021/12/05 11:44:54;;;;;;;11.80;8.00;;;2.90;99.90;;;;;;5019671;28;20242;-41
2021/12/05 11:47:23;;;;;;;12.47;8.37;;;3.00;99.90;;;;;;5050230;28;20228;-41
2021/12/05 11:49:50;;;;;;;12.47;8.63;;;3.00;99.90;;;;;;5004033;28;20207;-41
2021/12/05 11:52:24;;;;;;;13.03;8.33;;;3.00;99.90;;;;;;5027012;28;20235;-41
2021/12/05 11:54:52;;;;;;;13.03;8.70;;;3.00;99.90;;;;;;5047492;28;20228;-45
2021/12/05 11:57:22;;;;;;;10.97;7.83;;;3.00;99.90;;;;;;5029536;28;21119;-46
2021/12/05 11:59:51;;;;;;;9.40;6.93;;;3.00;99.90;;;;;;5044534;28;20499;-46
2021/12/05 12:02:21;;;;;;;11.60;8.20;;;3.00;99.90;;;;;;5041724;28;20196;-47
2021/12/05 12:04:52;;;;;;;10.43;7.87;;;3.00;99.90;;;;;;5025903;28;20231;-46
2021/12/05 12:07:29;;;;;;;13.33;8.07;;;3.00;99.90;;;;;;5044275;28;21077;-46
2021/12/05 12:09:59;;;;;;;9.23;6.97;;;3.10;99.90;;;;;;5053617;28;20697;-45
2021/12/05 12:12:27;;;;;;;9.80;6.93;;;3.00;99.90;;;;;;5028296;28;20764;-40
2021/12/05 12:14:54;;;;;;;9.13;6.83;;;3.00;99.90;;;;;;5040474;28;20903;-40
2021/12/05 12:17:22;;;;;;;8.80;6.07;;;3.10;99.90;;;;;;5040577;28;20417;-40
2021/12/05 12:19:50;;;;;;;8.57;6.40;;;3.00;99.90;;;;;;5020725;28;20203;-40
2021/12/05 12:22:20;;;;;;;13.83;8.90;;;2.90;99.90;;;;;;5034052;28;20401;-40
2021/12/05 12:24:52;;;;;;;11.40;9.43;;;2.90;99.90;;;;;;5022724;28;20570;-40
2021/12/05 12:27:19;;;;;;;10.30;7.57;;;2.90;99.90;;;;;;5024810;28;20200;-40
2021/12/05 12:29:47;;;;;;;10.33;7.20;;;2.90;99.90;;;;;;5033057;28;20204;-40
2021/12/05 12:32:18;;;;;;;14.43;12.57;;;2.80;99.90;;;;;;5028751;28;20207;-40
2021/12/05 12:34:46;;;;;;;15.30;9.77;;;2.90;99.90;;;;;;5026018;28;20203;-40
2021/12/05 12:37:14;;;;;;;11.17;8.57;;;2.90;99.90;;;;;;5029643;28;20208;-40
2021/12/05 12:39:44;;;;;;;11.50;8.47;;;2.90;99.90;;;;;;5036222;28;21188;-40
2021/12/05 12:42:17;;;;;;;10.63;7.40;;;2.90;99.90;;;;;;5049370;28;20423;-40
2021/12/05 12:45:09;;;;;;;12.47;8.60;;;2.90;99.90;;;;;;5036088;28;20569;-40
2021/12/05 12:47:39;;;;;;;14.50;9.93;;;2.90;99.90;;;;;;5048682;28;20604;-40
2021/12/05 12:50:34;;;;;;;14.70;10.63;;;2.90;99.90;;;;;;5031355;28;20458;-40
2021/12/05 12:53:05;;;;;;;16.37;10.20;;;2.90;99.90;;;;;;5033521;28;20242;-45
2021/12/05 12:55:36;;;;;;;16.00;10.53;;;3.00;99.90;;;;;;5028006;28;20697;-46
2021/12/05 12:58:08;;;;;;;17.83;11.17;;;2.90;99.90;;;;;;5034423;28;20684;-46
2021/12/05 13:00:37;;;;;;;17.63;13.43;;;2.90;99.90;;;;;;5038032;28;20243;-47
2021/12/05 13:03:25;;;;;;;14.63;11.00;;;2.90;99.90;;;;;;5050593;28;20634;-46
2021/12/05 13:07:20;;;;;;;19.47;12.53;;;3.00;99.90;;;;;;5037673;28;20459;-46
2021/12/05 13:11:51;;;;;;;16.90;10.77;;;2.90;99.90;;;;;;5050206;28;20292;-46
2021/12/05 13:14:20;;;;;;;13.83;9.70;;;2.90;99.90;;;;;;5021418;28;20637;-46
2021/12/05 13:16:48;;;;;;;15.23;10.17;;;3.00;99.90;;;;;;5048045;28;20224;-46
2021/12/05 13:19:19;;;;;;;14.90;10.70;;;3.00;99.90;;;;;;5037373;28;20204;-44
2021/12/05 13:21:49;;;;;;;17.27;10.03;;;3.00;99.90;;;;;;5040148;28;20216;-44
2021/12/05 13:24:27;;;;;;;17.40;10.33;;;3.00;99.90;;;;;;5009486;28;20533;-45
2021/12/05 13:27:01;;;;;;;14.60;10.40;;;3.00;99.90;;;;;;5042607;28;20951;-40
2021/12/05 13:29:32;;;;;;;15.73;9.80;;;3.00;99.90;;;;;;5033032;28;20204;-40
2021/12/05 13:32:07;;;;;;;16.03;10.53;;;3.00;99.90;;;;;;5061243;28;20204;-40
2021/12/05 13:34:44;;;;;;;14.30;9.23;;;2.90;99.90;;;;;;5044278;28;20228;-46
2021/12/05 13:37:32;;;;;;;15.33;9.77;;;2.90;99.90;;;;;;5027550;28;20204;-46
2021/12/05 13:40:15;;;;;;;13.53;9.40;;;3.20;99.90;;;;;;5044618;28;20216;-46
2021/12/05 13:42:46;;;;;;;15.30;10.23;;;3.60;99.90;;;;;;5059606;28;20235;-46
2021/12/05 13:45:31;;;;;;;14.00;9.47;;;3.70;99.90;;;;;;5028886;28;20231;-46
2021/12/05 13:48:17;;;;;;;22.10;10.63;;;3.90;99.90;;;;;;5058165;28;20208;-45
2021/12/05 13:50:47;;;;;;;12.37;8.73;;;4.00;99.90;;;;;;5047917;28;20381;-46
2021/12/05 13:53:24;;;;;;;11.50;9.00;;;3.80;99.90;;;;;;5020771;28;20236;-46
2021/12/05 13:56:06;;;;;;;12.40;7.83;;;3.60;99.90;;;;;;5048159;28;25379;-46
2021/12/05 13:58:40;;;;;;;13.60;8.80;;;3.50;99.90;;;;;;5047324;28;20228;-46
2021/12/05 14:01:12;;;;;;;12.50;8.33;;;3.30;99.90;;;;;;5038206;28;20216;-47
2021/12/05 14:04:07;;;;;;;12.50;8.60;;;3.30;99.90;;;;;;5059304;28;20670;-47
2021/12/05 14:06:53;;;;;;;13.43;8.50;;;3.20;99.90;;;;;;5046674;28;20761;-47
2021/12/05 14:09:24;;;;;;;16.80;8.87;;;3.10;99.90;;;;;;5030000;28;20716;-46
2021/12/05 14:11:56;;;;;;;12.57;8.30;;;2.90;99.90;;;;;;5043243;28;20852;-47
2021/12/05 14:14:27;;;;;;;10.43;7.83;;;2.90;99.90;;;;;;5050651;28;20238;-46
2021/12/05 14:16:57;;;;;;;11.27;8.87;;;2.80;99.90;;;;;;5046900;28;20286;-46
2021/12/05 14:19:27;;;;;;;14.17;9.90;;;2.90;99.90;;;;;;5047138;28;20621;-46
2021/12/05 14:21:56;;;;;;;17.03;11.13;;;2.90;99.90;;;;;;5048579;28;20583;-47
2021/12/05 14:24:26;;;;;;;15.30;10.17;;;2.90;99.90;;;;;;5030232;28;20357;-46
2021/12/05 14:26:55;;;;;;;13.27;9.97;;;2.90;99.90;;;;;;5053603;28;20208;-47
2021/12/05 14:29:26;;;;;;;14.43;9.90;;;2.90;99.90;;;;;;5047423;28;21793;-46
2021/12/05 14:31:59;;;;;;;13.67;9.73;;;2.80;99.90;;;;;;5011425;28;20216;-46
2021/12/05 14:34:27;;;;;;;12.40;9.13;;;2.80;99.90;;;;;;5006423;28;21124;-47
2021/12/05 14:36:57;;;;;;;12.43;8.23;;;2.80;99.90;;;;;;5050205;28;20420;-47
2021/12/05 14:39:29;;;;;;;13.90;9.30;;;2.80;99.90;;;;;;5006548;28;20217;-46
2021/12/05 14:41:59;;;;;;;12.37;7.73;;;2.80;99.90;;;;;;5035148;28;20225;-47
2021/12/05 14:44:28;;;;;;;9.93;7.67;;;2.80;99.90;;;;;;5042051;28;20469;-47
2021/12/05 14:47:01;;;;;;;16.97;10.57;;;2.70;99.90;;;;;;5041221;28;20210;-47
2021/12/05 14:49:30;;;;;;;12.80;8.53;;;2.70;99.90;;;;;;5049667;28;20989;-46
2021/12/05 14:51:57;;;;;;;12.77;8.27;;;2.70;99.90;;;;;;5023301;28;20796;-43
2021/12/05 14:54:32;;;;;;;11.93;8.57;;;2.60;99.90;;;;;;5047275;28;20232;-40
2021/12/05 14:56:59;;;;;;;14.80;9.03;;;2.60;99.90;;;;;;5043757;28;20210;-40
2021/12/05 14:59:27;;;;;;;11.90;8.50;;;2.50;99.90;;;;;;5055462;28;20226;-40
2021/12/05 15:01:58;;;;;;;11.90;8.80;;;2.50;99.90;;;;;;5021209;28;20217;-40
2021/12/05 15:04:34;;;;;;;14.03;9.17;;;2.50;99.90;;;;;;5038635;28;20405;-43
2021/12/05 15:07:02;;;;;;;13.17;9.20;;;2.50;99.90;;;;;;5010067;28;20209;-41
2021/12/05 15:09:36;;;;;;;9.97;8.17;;;2.40;99.90;;;;;;5039822;28;20217;-41
2021/12/05 15:12:07;;;;;;;12.17;8.13;;;2.50;99.90;;;;;;5042835;28;20617;-40
2021/12/05 15:14:36;;;;;;;12.10;8.30;;;2.40;99.90;;;;;;5040851;28;20316;-41
2021/12/05 15:17:09;;;;;;;13.40;7.90;;;2.40;99.90;;;;;;5046750;28;20409;-41
2021/12/05 15:19:39;;;;;;;9.77;7.30;;;2.40;99.90;;;;;;5028530;28;20214;-40
2021/12/05 15:22:07;;;;;;;11.37;8.50;;;2.50;99.90;;;;;;5021789;28;20243;-40
2021/12/05 15:24:35;;;;;;;10.57;7.37;;;2.50;99.90;;;;;;5055346;28;20224;-41
2021/12/05 15:27:04;;;;;;;9.87;7.47;;;2.50;99.90;;;;;;5025047;28;21126;-40
2021/12/05 15:29:31;;;;;;;10.80;7.60;;;2.60;99.90;;;;;;5042142;28;20222;-39
2021/12/05 15:31:59;;;;;;;11.27;6.93;;;2.60;99.90;;;;;;5037618;28;20205;-40
2021/12/05 15:34:31;;;;;;;10.13;7.33;;;2.60;99.90;;;;;;5037120;28;20225;-40
2021/12/05 15:37:06;;;;;;;9.73;7.63;;;2.60;99.90;;;;;;5020646;28;20223;-40
2021/12/05 15:39:34;;;;;;;10.93;7.10;;;2.50;99.90;;;;;;5046695;28;20604;-40
2021/12/05 15:42:01;;;;;;;11.70;7.53;;;2.50;99.90;;;;;;5017946;28;20285;-40
2021/12/05 15:44:33;;;;;;;11.97;8.10;;;2.50;99.90;;;;;;5043626;28;20221;-40
2021/12/05 15:47:05;;;;;;;10.90;8.00;;;2.50;99.90;;;;;;5045675;28;20205;-40
2021/12/05 15:49:49;;;;;;;9.90;7.40;;;2.50;99.90;;;;;;5028901;28;20205;-40
2021/12/05 15:52:17;;;;;;;11.43;7.93;;;2.50;99.90;;;;;;5036584;28;20206;-40
2021/12/05 15:54:46;;;;;;;8.80;7.00;;;2.40;99.90;;;;;;5039257;28;20207;-40
2021/12/05 15:57:16;;;;;;;9.67;7.10;;;2.40;99.90;;;;;;5039856;28;21393;-40
2021/12/05 15:59:47;;;;;;;8.27;6.03;;;2.40;99.90;;;;;;5031938;28;20254;-40
2021/12/05 16:02:18;;;;;;;5.73;5.03;;;2.40;99.90;;;;;;5050381;28;20211;-40
2021/12/05 16:04:47;;;;;;;9.57;6.90;;;2.60;99.90;;;;;;5038539;28;20231;-40
2021/12/05 16:07:16;;;;;;;8.53;6.40;;;2.70;99.90;;;;;;5044533;28;20210;-40
2021/12/05 16:09:44;;;;;;;8.63;6.80;;;2.60;99.90;;;;;;5029988;28;20944;-40
2021/12/05 16:12:14;;;;;;;9.90;6.93;;;2.50;99.90;;;;;;5042443;28;20883;-40
2021/12/05 16:14:44;;;;;;;9.93;7.43;;;2.50;99.90;;;;;;5023612;28;20236;-40
2021/12/05 16:17:17;;;;;;;9.27;6.67;;;2.40;99.90;;;;;;5036072;28;20699;-40
2021/12/05 16:20:17;;;;;;;12.13;8.03;;;2.50;99.90;;;;;;5022638;28;20211;-39
2021/12/05 16:23:19;;;;;;;12.23;6.93;;;2.40;99.90;;;;;;5055149;28;20228;-40
2021/12/05 16:25:50;;;;;;;11.13;7.07;;;2.30;99.90;;;;;;5039856;28;20423;-40
2021/12/05 16:28:24;;;;;;;9.83;7.27;;;2.40;99.90;;;;;;5030628;28;20907;-40
2021/12/05 16:31:00;;;;;;;9.37;7.07;;;2.40;99.90;;;;;;5022042;28;20237;-40
2021/12/05 16:33:29;;;;;;;13.27;8.13;;;2.40;99.90;;;;;;5040205;28;20222;-40
2021/12/05 16:35:58;;;;;;;10.20;7.47;;;2.40;99.90;;;;;;5041491;28;20218;-40
2021/12/05 16:38:44;;;;;;;12.83;7.40;;;2.40;99.90;;;;;;5035480;28;20285;-40
2021/12/05 16:41:18;;;;;;;12.70;8.47;;;2.40;99.90;;;;;;5023899;28;20211;-40
2021/12/05 16:43:58;;;;;;;14.90;8.93;;;2.40;99.90;;;;;;5048461;28;21230;-41
2021/12/05 16:46:31;;;;;;;15.90;9.10;;;2.40;99.90;;;;;;5038862;28;20302;-40
2021/12/05 16:49:00;;;;;;;16.13;10.47;;;2.40;99.90;;;;;;5041668;28;20214;-40
2021/12/05 16:51:34;;;;;;;18.13;11.40;;;2.30;99.90;;;;;;5023003;28;20232;-40
2021/12/05 16:54:05;;;;;;;18.30;12.40;;;2.30;99.90;;;;;;5044556;28;20447;-40
2021/12/05 16:56:54;;;;;;;21.23;12.07;;;2.30;99.90;;;;;;5032538;28;20854;-40
2021/12/05 16:59:25;;;;;;;32.97;17.23;;;2.30;99.90;;;;;;5020385;28;20998;-40
2021/12/05 17:02:17;;;;;;;18.73;12.13;;;2.30;99.90;;;;;;5037241;28;20908;-40
2021/12/05 17:04:56;;;;;;;22.37;11.90;;;2.30;99.90;;;;;;5047529;28;20324;-40
2021/12/05 17:07:45;;;;;;;19.57;11.13;;;2.20;99.90;;;;;;5037801;28;20277;-40